createdAt,value
2023-05-10T00:00:00.766Z,80.72
2023-05-10T00:01:00.669Z,80.72
2023-05-10T00:02:00.721Z,80.72
2023-05-10T00:03:00.820Z,80.72
2023-05-10T00:04:00.715Z,80.72
2023-05-10T00:05:01.325Z,80.78
2023-05-10T00:06:00.688Z,80.78
2023-05-10T00:07:00.725Z,80.78
2023-05-10T00:08:00.672Z,80.78
2023-05-10T00:09:00.698Z,80.78
2023-05-10T00:10:00.777Z,80.82
2023-05-10T00:11:00.711Z,80.82
2023-05-10T00:12:00.917Z,80.82
2023-05-10T00:13:00.698Z,80.82
2023-05-10T00:14:00.682Z,80.82
2023-05-10T00:15:00.755Z,80.81
2023-05-10T00:16:00.740Z,80.81
2023-05-10T00:17:00.741Z,80.81
2023-05-10T00:18:00.764Z,80.81
2023-05-10T00:19:00.683Z,80.81
2023-05-10T00:20:00.782Z,80.86
2023-05-10T00:21:00.679Z,80.86
2023-05-10T00:22:00.718Z,80.86
2023-05-10T00:23:00.685Z,80.86
2023-05-10T00:24:00.824Z,80.86
2023-05-10T00:25:00.674Z,80.89
2023-05-10T00:26:00.680Z,80.89
2023-05-10T00:27:00.703Z,80.89
2023-05-10T00:28:00.667Z,80.89
2023-05-10T00:29:00.691Z,80.89
2023-05-10T00:30:00.691Z,81.11
2023-05-10T00:31:00.694Z,81.11
2023-05-10T00:32:00.699Z,81.11
2023-05-10T00:33:00.721Z,81.11
2023-05-10T00:34:00.677Z,81.11
2023-05-10T00:35:00.697Z,80.86
2023-05-10T00:36:00.675Z,80.86
2023-05-10T00:37:00.672Z,80.86
2023-05-10T00:38:00.670Z,80.86
2023-05-10T00:39:00.740Z,80.86
2023-05-10T00:40:00.684Z,80.52
2023-05-10T00:41:00.730Z,80.52
2023-05-10T00:42:00.702Z,80.52
2023-05-10T00:43:00.680Z,80.52
2023-05-10T00:44:00.695Z,80.52
2023-05-10T00:45:00.885Z,80.64
2023-05-10T00:46:00.758Z,80.64
2023-05-10T00:47:00.730Z,80.64
2023-05-10T00:48:02.108Z,80.64
2023-05-10T00:49:00.905Z,80.64
2023-05-10T00:50:01.247Z,80.65
2023-05-10T00:51:01.351Z,80.65
2023-05-10T00:52:00.927Z,80.65
2023-05-10T00:53:01.350Z,80.65
2023-05-10T00:54:00.690Z,80.65
2023-05-10T00:55:01.168Z,80.65
2023-05-10T00:56:01.187Z,80.65
2023-05-10T00:57:00.682Z,80.65
2023-05-10T00:58:00.752Z,80.65
2023-05-10T00:59:00.881Z,80.65
2023-05-10T01:00:01.352Z,80.90
2023-05-10T01:01:01.293Z,80.90
2023-05-10T01:02:01.285Z,80.90
2023-05-10T01:03:00.821Z,80.90
2023-05-10T01:04:00.790Z,80.90
2023-05-10T01:05:02.049Z,80.81
2023-05-10T01:06:00.742Z,80.81
2023-05-10T01:07:00.746Z,80.81
2023-05-10T01:08:00.772Z,80.81
2023-05-10T01:09:00.782Z,80.81
2023-05-10T01:10:00.809Z,80.77
2023-05-10T01:11:00.739Z,80.77
2023-05-10T01:12:01.266Z,80.77
2023-05-10T01:13:00.747Z,80.77
2023-05-10T01:14:01.407Z,80.77
2023-05-10T01:15:01.355Z,81.21
2023-05-10T01:16:00.749Z,81.21
2023-05-10T01:17:00.880Z,81.21
2023-05-10T01:18:00.962Z,81.21
2023-05-10T01:19:00.805Z,81.21
2023-05-10T01:20:00.833Z,80.94
2023-05-10T01:21:09.026Z,80.94
2023-05-10T01:22:11.373Z,80.94
2023-05-10T01:23:01.681Z,80.94
2023-05-10T01:24:10.649Z,80.94
2023-05-10T01:25:01.714Z,80.89
2023-05-10T01:26:10.602Z,80.89
2023-05-10T01:27:10.616Z,80.89
2023-05-10T01:28:00.668Z,80.89
2023-05-10T01:29:01.685Z,80.89
2023-05-10T01:30:15.636Z,80.96
2023-05-10T01:31:01.747Z,80.96
2023-05-10T01:32:10.615Z,80.96
2023-05-10T01:33:00.692Z,80.96
2023-05-10T01:34:02.467Z,80.96
2023-05-10T01:35:10.639Z,80.93
2023-05-10T01:36:08.765Z,80.93
2023-05-10T01:37:05.857Z,80.93
2023-05-10T01:38:07.533Z,80.93
2023-05-10T01:39:09.098Z,80.93
2023-05-10T01:40:06.421Z,80.72
2023-05-10T01:41:10.605Z,80.72
2023-05-10T01:42:04.403Z,80.72
2023-05-10T01:43:02.562Z,80.72
2023-05-10T01:44:10.605Z,80.72
2023-05-10T01:45:10.580Z,80.70
2023-05-10T01:46:00.676Z,80.70
2023-05-10T01:47:09.658Z,80.70
2023-05-10T01:48:05.285Z,80.70
2023-05-10T01:49:02.277Z,80.70
2023-05-10T01:50:02.732Z,80.96
2023-05-10T01:51:00.668Z,80.96
2023-05-10T01:52:06.221Z,80.96
2023-05-10T01:53:01.680Z,80.96
2023-05-10T01:54:02.020Z,80.96
2023-05-10T01:55:02.364Z,81.00
2023-05-10T01:56:01.355Z,81.00
2023-05-10T01:57:04.629Z,81.00
2023-05-10T01:58:04.303Z,81.00
2023-05-10T01:59:05.325Z,81.00
2023-05-10T02:00:03.124Z,81.18
2023-05-10T02:01:03.206Z,81.18
2023-05-10T02:02:01.855Z,81.18
2023-05-10T02:03:04.010Z,81.18
2023-05-10T02:04:01.821Z,81.18
2023-05-10T02:05:02.488Z,80.93
2023-05-10T02:06:01.466Z,80.93
2023-05-10T02:07:00.681Z,80.93
2023-05-10T02:08:01.358Z,80.93
2023-05-10T02:09:01.668Z,80.93
2023-05-10T02:10:01.761Z,80.81
2023-05-10T02:11:01.294Z,80.81
2023-05-10T02:12:01.988Z,80.81
2023-05-10T02:13:01.769Z,80.81
2023-05-10T02:14:01.265Z,80.81
2023-05-10T02:15:02.057Z,80.85
2023-05-10T02:16:01.789Z,80.85
2023-05-10T02:17:01.995Z,80.85
2023-05-10T02:18:02.356Z,80.85
2023-05-10T02:19:01.475Z,80.85
2023-05-10T02:20:01.816Z,80.76
2023-05-10T02:21:01.838Z,80.76
2023-05-10T02:22:01.753Z,80.76
2023-05-10T02:23:01.442Z,80.76
2023-05-10T02:24:03.064Z,80.76
2023-05-10T02:25:00.849Z,80.77
2023-05-10T02:26:01.244Z,80.77
2023-05-10T02:27:02.208Z,80.77
2023-05-10T02:28:02.280Z,80.77
2023-05-10T02:29:02.550Z,80.77
2023-05-10T02:30:01.421Z,80.79
2023-05-10T02:31:00.943Z,80.79
2023-05-10T02:32:01.523Z,80.79
2023-05-10T02:33:01.371Z,80.79
2023-05-10T02:34:01.600Z,80.79
2023-05-10T02:35:02.506Z,80.78
2023-05-10T02:36:02.475Z,80.78
2023-05-10T02:37:02.356Z,80.78
2023-05-10T02:38:01.088Z,80.78
2023-05-10T02:39:01.396Z,80.78
2023-05-10T02:40:01.251Z,80.70
2023-05-10T02:41:01.801Z,80.70
2023-05-10T02:42:01.618Z,80.70
2023-05-10T02:43:01.633Z,80.70
2023-05-10T02:44:02.361Z,80.70
2023-05-10T02:45:01.675Z,80.51
2023-05-10T02:46:01.340Z,80.51
2023-05-10T02:47:00.712Z,80.51
2023-05-10T02:48:00.824Z,80.51
2023-05-10T02:49:00.999Z,80.51
2023-05-10T02:50:00.868Z,80.56
2023-05-10T02:51:03.253Z,80.56
2023-05-10T02:52:02.536Z,80.56
2023-05-10T02:53:01.336Z,80.56
2023-05-10T02:54:06.832Z,80.56
2023-05-10T02:55:02.318Z,80.50
2023-05-10T02:56:04.063Z,80.50
2023-05-10T02:57:03.843Z,80.50
2023-05-10T02:58:01.131Z,80.50
2023-05-10T02:59:00.739Z,80.50
2023-05-10T03:00:01.485Z,80.46
2023-05-10T03:01:00.731Z,80.46
2023-05-10T03:02:01.173Z,80.46
2023-05-10T03:03:00.706Z,80.46
2023-05-10T03:04:00.725Z,80.46
2023-05-10T03:05:00.820Z,80.46
2023-05-10T03:06:00.746Z,80.46
2023-05-10T03:07:01.148Z,80.46
2023-05-10T03:08:00.889Z,80.46
2023-05-10T03:09:01.742Z,80.46
2023-05-10T03:10:01.421Z,80.33
2023-05-10T03:11:00.665Z,80.33
2023-05-10T03:12:05.468Z,80.33
2023-05-10T03:13:06.893Z,80.33
2023-05-10T03:14:01.669Z,80.33
2023-05-10T03:15:03.623Z,80.39
2023-05-10T03:16:07.995Z,80.39
2023-05-10T03:17:06.341Z,80.39
2023-05-10T03:18:05.010Z,80.39
2023-05-10T03:19:06.428Z,80.39
2023-05-10T03:20:06.607Z,80.41
2023-05-10T03:21:02.889Z,80.41
2023-05-10T03:22:05.098Z,80.41
2023-05-10T03:23:04.771Z,80.41
2023-05-10T03:24:05.673Z,80.41
2023-05-10T03:25:04.537Z,80.29
2023-05-10T03:26:01.469Z,80.29
2023-05-10T03:27:01.116Z,80.29
2023-05-10T03:28:01.105Z,80.29
2023-05-10T03:29:01.063Z,80.29
2023-05-10T03:30:02.069Z,80.25
2023-05-10T03:31:01.997Z,80.25
2023-05-10T03:32:00.740Z,80.25
2023-05-10T03:33:08.106Z,80.25
2023-05-10T03:34:00.676Z,80.25
2023-05-10T03:35:00.903Z,80.10
2023-05-10T03:36:00.699Z,80.10
2023-05-10T03:37:00.674Z,80.10
2023-05-10T03:38:01.162Z,80.10
2023-05-10T03:39:00.709Z,80.10
2023-05-10T03:40:00.878Z,79.93
2023-05-10T03:41:00.691Z,79.93
2023-05-10T03:42:00.751Z,79.93
2023-05-10T03:43:00.782Z,79.93
2023-05-10T03:44:00.740Z,79.93
2023-05-10T03:45:00.705Z,79.90
2023-05-10T03:46:02.721Z,79.90
2023-05-10T03:47:00.850Z,79.90
2023-05-10T03:48:00.848Z,79.90
2023-05-10T03:49:00.696Z,79.90
2023-05-10T03:50:00.692Z,79.69
2023-05-10T03:51:00.676Z,79.69
2023-05-10T03:52:00.674Z,79.69
2023-05-10T03:53:00.679Z,79.69
2023-05-10T03:54:00.682Z,79.69
2023-05-10T03:55:00.703Z,79.58
2023-05-10T03:56:00.712Z,79.58
2023-05-10T03:57:00.760Z,79.58
2023-05-10T03:58:00.665Z,79.58
2023-05-10T03:59:00.719Z,79.58
2023-05-10T04:00:00.828Z,79.70
2023-05-10T04:01:00.750Z,79.70
2023-05-10T04:02:00.811Z,79.70
2023-05-10T04:03:00.789Z,79.70
2023-05-10T04:04:01.006Z,79.70
2023-05-10T04:05:00.776Z,79.71
2023-05-10T04:06:01.156Z,79.71
2023-05-10T04:07:00.687Z,79.71
2023-05-10T04:08:00.715Z,79.71
2023-05-10T04:09:00.729Z,79.71
2023-05-10T04:10:00.791Z,79.66
2023-05-10T04:11:08.425Z,79.66
2023-05-10T04:12:00.728Z,79.66
2023-05-10T04:13:00.754Z,79.66
2023-05-10T04:14:00.675Z,79.66
2023-05-10T04:15:00.701Z,79.63
2023-05-10T04:16:00.925Z,79.63
2023-05-10T04:17:00.751Z,79.63
2023-05-10T04:18:00.740Z,79.63
2023-05-10T04:19:00.728Z,79.63
2023-05-10T04:20:00.698Z,79.48
2023-05-10T04:21:00.688Z,79.48
2023-05-10T04:22:02.193Z,79.48
2023-05-10T04:23:00.724Z,79.48
2023-05-10T04:24:00.659Z,79.48
2023-05-10T04:25:00.692Z,79.39
2023-05-10T04:26:01.090Z,79.39
2023-05-10T04:27:00.761Z,79.39
2023-05-10T04:28:00.716Z,79.39
2023-05-10T04:29:00.685Z,79.39
2023-05-10T04:30:00.863Z,79.49
2023-05-10T04:31:04.307Z,79.49
2023-05-10T04:32:00.673Z,79.49
2023-05-10T04:33:00.959Z,79.49
2023-05-10T04:34:00.712Z,79.49
2023-05-10T04:35:00.680Z,79.28
2023-05-10T04:36:01.020Z,79.28
2023-05-10T04:37:00.679Z,79.28
2023-05-10T04:38:00.782Z,79.28
2023-05-10T04:39:00.705Z,79.28
2023-05-10T04:40:00.765Z,79.06
2023-05-10T04:41:04.654Z,79.06
2023-05-10T04:42:01.182Z,79.06
2023-05-10T04:43:00.671Z,79.06
2023-05-10T04:44:00.676Z,79.06
2023-05-10T04:45:00.706Z,79.09
2023-05-10T04:46:00.770Z,79.09
2023-05-10T04:47:00.776Z,79.09
2023-05-10T04:48:00.713Z,79.09
2023-05-10T04:49:00.672Z,79.09
2023-05-10T04:50:00.857Z,79.48
2023-05-10T04:51:00.738Z,79.48
2023-05-10T04:52:00.667Z,79.48
2023-05-10T04:53:00.784Z,79.48
2023-05-10T04:55:01.874Z,79.43
2023-05-10T04:56:00.729Z,79.43
2023-05-10T04:57:00.682Z,79.43
2023-05-10T04:58:00.705Z,79.43
2023-05-10T04:59:01.009Z,79.43
2023-05-10T05:00:00.778Z,79.93
2023-05-10T05:01:08.192Z,79.93
2023-05-10T05:02:00.828Z,79.93
2023-05-10T05:03:00.834Z,79.93
2023-05-10T05:04:00.847Z,79.93
2023-05-10T05:05:00.697Z,80.08
2023-05-10T05:06:00.716Z,80.08
2023-05-10T05:07:00.718Z,80.08
2023-05-10T05:08:00.678Z,80.08
2023-05-10T05:09:00.792Z,80.08
2023-05-10T05:10:00.705Z,79.98
2023-05-10T05:11:00.764Z,79.98
2023-05-10T05:12:00.677Z,79.98
2023-05-10T05:13:00.849Z,79.98
2023-05-10T05:14:00.689Z,79.98
2023-05-10T05:15:01.088Z,80.06
2023-05-10T05:16:01.349Z,80.06
2023-05-10T05:17:00.693Z,80.06
2023-05-10T05:18:00.930Z,80.06
2023-05-10T05:19:00.682Z,80.06
2023-05-10T05:20:00.722Z,79.84
2023-05-10T05:21:00.675Z,79.84
2023-05-10T05:22:00.681Z,79.84
2023-05-10T05:23:00.886Z,79.84
2023-05-10T05:24:00.681Z,79.84
2023-05-10T05:25:00.681Z,80.10
2023-05-10T05:26:00.857Z,80.10
2023-05-10T05:27:00.811Z,80.10
2023-05-10T05:28:00.975Z,80.10
2023-05-10T05:29:00.835Z,80.10
2023-05-10T05:30:00.932Z,80.67
2023-05-10T05:31:00.772Z,80.67
2023-05-10T05:32:00.917Z,80.67
2023-05-10T05:33:00.935Z,80.67
2023-05-10T05:34:00.811Z,80.67
2023-05-10T05:35:00.825Z,80.68
2023-05-10T05:36:01.655Z,80.68
2023-05-10T05:37:01.882Z,80.68
2023-05-10T05:38:00.831Z,80.68
2023-05-10T05:39:00.812Z,80.68
2023-05-10T05:40:00.945Z,80.77
2023-05-10T05:41:00.844Z,80.77
2023-05-10T05:42:00.801Z,80.77
2023-05-10T05:43:00.815Z,80.77
2023-05-10T05:44:00.828Z,80.77
2023-05-10T05:45:00.824Z,80.73
2023-05-10T05:46:00.861Z,80.73
2023-05-10T05:47:01.017Z,80.73
2023-05-10T05:48:00.816Z,80.73
2023-05-10T05:49:00.857Z,80.73
2023-05-10T05:50:00.777Z,79.78
2023-05-10T05:51:00.893Z,79.78
2023-05-10T05:52:01.470Z,79.78
2023-05-10T05:53:00.862Z,79.78
2023-05-10T05:54:00.853Z,79.78
2023-05-10T05:55:00.784Z,78.29
2023-05-10T05:56:00.777Z,78.29
2023-05-10T05:57:01.541Z,78.29
2023-05-10T05:58:00.784Z,78.29
2023-05-10T05:59:00.785Z,78.29
2023-05-10T06:00:00.873Z,78.06
2023-05-10T06:01:00.830Z,78.06
2023-05-10T06:02:00.871Z,78.06
2023-05-10T06:03:01.007Z,78.06
2023-05-10T06:04:00.963Z,78.06
2023-05-10T06:05:00.802Z,75.89
2023-05-10T06:06:00.799Z,75.89
2023-05-10T06:07:00.787Z,75.89
2023-05-10T06:08:00.805Z,75.89
2023-05-10T06:09:00.801Z,75.89
2023-05-10T06:10:01.158Z,74.01
2023-05-10T06:11:00.960Z,74.01
2023-05-10T06:12:00.825Z,74.01
2023-05-10T06:13:00.842Z,74.01
2023-05-10T06:14:01.010Z,74.01
2023-05-10T06:15:00.867Z,71.27
2023-05-10T06:16:01.089Z,71.27
2023-05-10T06:17:00.936Z,71.27
2023-05-10T06:18:00.868Z,71.27
2023-05-10T06:19:00.927Z,71.27
2023-05-10T06:20:00.839Z,68.19
2023-05-10T06:21:00.860Z,68.19
2023-05-10T06:22:00.847Z,68.19
2023-05-10T06:23:00.841Z,68.19
2023-05-10T06:24:00.827Z,68.19
2023-05-10T06:25:00.799Z,68.32
2023-05-10T06:26:00.840Z,68.32
2023-05-10T06:27:00.786Z,68.32
2023-05-10T06:28:00.846Z,68.32
2023-05-10T06:29:00.797Z,68.32
2023-05-10T06:30:11.697Z,65.46
2023-05-10T06:31:00.813Z,65.46
2023-05-10T06:32:00.839Z,65.46
2023-05-10T06:33:00.821Z,65.46
2023-05-10T06:34:00.832Z,65.46
2023-05-10T06:35:00.905Z,63.00
2023-05-10T06:36:00.809Z,63.00
2023-05-10T06:37:00.793Z,63.00
2023-05-10T06:38:00.806Z,63.00
2023-05-10T06:39:00.869Z,63.00
2023-05-10T06:40:01.034Z,61.26
2023-05-10T06:41:00.808Z,61.26
2023-05-10T06:42:00.844Z,61.26
2023-05-10T06:43:00.823Z,61.26
2023-05-10T06:44:00.821Z,61.26
2023-05-10T06:45:00.854Z,58.80
2023-05-10T06:46:00.891Z,58.80
2023-05-10T06:47:00.803Z,58.80
2023-05-10T06:48:00.925Z,58.80
2023-05-10T06:49:00.846Z,58.80
2023-05-10T06:50:00.798Z,58.55
2023-05-10T06:51:00.871Z,58.55
2023-05-10T06:52:00.839Z,58.55
2023-05-10T06:53:00.901Z,58.55
2023-05-10T06:54:00.796Z,58.55
2023-05-10T06:55:00.961Z,60.61
2023-05-10T06:56:00.804Z,60.61
2023-05-10T06:57:01.910Z,60.61
2023-05-10T06:58:00.790Z,60.61
2023-05-10T06:59:00.897Z,60.61
2023-05-10T07:00:01.013Z,63.68
2023-05-10T07:01:02.401Z,63.68
2023-05-10T07:02:00.862Z,63.68
2023-05-10T07:03:00.863Z,63.68
2023-05-10T07:04:00.884Z,63.68
2023-05-10T07:05:15.431Z,65.34
2023-05-10T07:06:01.466Z,65.34
2023-05-10T07:07:00.822Z,65.34
2023-05-10T07:08:00.834Z,65.34
2023-05-10T07:09:00.851Z,65.34
2023-05-10T07:10:00.915Z,66.54
2023-05-10T07:11:01.656Z,66.54
2023-05-10T07:12:00.821Z,66.54
2023-05-10T07:13:00.939Z,66.54
2023-05-10T07:14:00.813Z,66.54
2023-05-10T07:15:00.819Z,67.84
2023-05-10T07:16:00.920Z,67.84
2023-05-10T07:17:00.693Z,67.84
2023-05-10T07:18:01.055Z,67.84
2023-05-10T07:19:00.675Z,67.84
2023-05-10T07:20:01.066Z,67.96
2023-05-10T07:21:00.696Z,67.96
2023-05-10T07:22:00.683Z,67.96
2023-05-10T07:23:00.666Z,67.96
2023-05-10T07:24:00.682Z,67.96
2023-05-10T07:25:00.877Z,68.73
2023-05-10T07:26:00.693Z,68.73
2023-05-10T07:27:00.857Z,68.73
2023-05-10T07:28:00.669Z,68.73
2023-05-10T07:29:00.687Z,68.73
2023-05-10T07:30:00.984Z,68.47
2023-05-10T07:31:00.767Z,68.47
2023-05-10T07:32:00.759Z,68.47
2023-05-10T07:33:00.760Z,68.47
2023-05-10T07:34:00.883Z,68.47
2023-05-10T07:35:00.691Z,69.38
2023-05-10T07:36:00.686Z,69.38
2023-05-10T07:37:00.988Z,69.38
2023-05-10T07:38:00.929Z,69.38
2023-05-10T07:39:00.707Z,69.38
2023-05-10T07:40:00.691Z,69.91
2023-05-10T07:41:00.688Z,69.91
2023-05-10T07:42:00.690Z,69.91
2023-05-10T07:43:00.676Z,69.91
2023-05-10T07:44:00.685Z,69.91
2023-05-10T07:45:00.719Z,70.85
2023-05-10T07:46:00.779Z,70.85
2023-05-10T07:47:00.674Z,70.85
2023-05-10T07:48:00.701Z,70.85
2023-05-10T07:49:00.986Z,70.85
2023-05-10T07:50:00.974Z,71.14
2023-05-10T07:51:00.669Z,71.14
2023-05-10T07:52:00.688Z,71.14
2023-05-10T07:53:00.692Z,71.14
2023-05-10T07:54:00.673Z,71.14
2023-05-10T07:55:00.742Z,71.93
2023-05-10T07:56:10.608Z,71.93
2023-05-10T07:57:00.708Z,71.93
2023-05-10T07:58:00.706Z,71.93
2023-05-10T07:59:02.220Z,71.93
2023-05-10T08:00:00.798Z,72.33
2023-05-10T08:01:00.734Z,72.33
2023-05-10T08:02:00.727Z,72.33
2023-05-10T08:03:00.924Z,72.33
2023-05-10T08:04:01.087Z,72.33
2023-05-10T08:05:00.924Z,72.54
2023-05-10T08:06:00.740Z,72.54
2023-05-10T08:07:00.707Z,72.54
2023-05-10T08:08:00.669Z,72.54
2023-05-10T08:09:00.701Z,72.54
2023-05-10T08:10:01.098Z,72.77
2023-05-10T08:11:00.682Z,72.77
2023-05-10T08:12:00.673Z,72.77
2023-05-10T08:13:00.683Z,72.77
2023-05-10T08:14:00.751Z,72.77
2023-05-10T08:15:00.686Z,72.59
2023-05-10T08:16:00.793Z,72.59
2023-05-10T08:17:00.689Z,72.59
2023-05-10T08:18:00.697Z,72.59
2023-05-10T08:19:01.058Z,72.59
2023-05-10T08:20:01.065Z,72.82
2023-05-10T08:21:00.667Z,72.82
2023-05-10T08:22:00.754Z,72.82
2023-05-10T08:23:00.711Z,72.82
2023-05-10T08:24:00.713Z,72.82
2023-05-10T08:25:00.686Z,72.95
2023-05-10T08:26:00.709Z,72.95
2023-05-10T08:27:00.671Z,72.95
2023-05-10T08:28:00.669Z,72.95
2023-05-10T08:29:00.687Z,72.95
2023-05-10T08:30:00.666Z,72.60
2023-05-10T08:31:00.699Z,72.60
2023-05-10T08:32:00.676Z,72.60
2023-05-10T08:33:00.742Z,72.60
2023-05-10T08:34:00.664Z,72.60
2023-05-10T08:35:00.669Z,72.79
2023-05-10T08:36:00.699Z,72.79
2023-05-10T08:37:00.680Z,72.79
2023-05-10T08:38:01.062Z,72.79
2023-05-10T08:39:00.693Z,72.79
2023-05-10T08:40:00.674Z,72.71
2023-05-10T08:41:01.896Z,72.71
2023-05-10T08:42:02.029Z,72.71
2023-05-10T08:43:04.786Z,72.71
2023-05-10T08:44:03.867Z,72.71
2023-05-10T08:45:01.868Z,72.92
2023-05-10T08:46:01.189Z,72.92
2023-05-10T08:47:04.112Z,72.92
2023-05-10T08:48:01.798Z,72.92
2023-05-10T08:49:01.946Z,72.92
2023-05-10T08:50:02.481Z,72.89
2023-05-10T08:51:02.562Z,72.89
2023-05-10T08:52:02.695Z,72.89
2023-05-10T08:53:03.714Z,72.89
2023-05-10T08:54:01.192Z,72.89
2023-05-10T08:55:00.873Z,72.85
2023-05-10T08:56:03.279Z,72.85
2023-05-10T08:57:00.719Z,72.85
2023-05-10T08:58:00.670Z,72.85
2023-05-10T08:59:01.165Z,72.85
2023-05-10T09:00:00.826Z,72.60
2023-05-10T09:01:00.773Z,72.60
2023-05-10T09:02:01.621Z,72.60
2023-05-10T09:03:01.479Z,72.60
2023-05-10T09:04:00.813Z,72.60
2023-05-10T09:05:00.864Z,72.03
2023-05-10T09:06:01.068Z,72.03
2023-05-10T09:07:00.753Z,72.03
2023-05-10T09:08:00.690Z,72.03
2023-05-10T09:09:01.277Z,72.03
2023-05-10T09:10:00.698Z,72.15
2023-05-10T09:11:01.145Z,72.15
2023-05-10T09:12:00.813Z,72.15
2023-05-10T09:13:01.376Z,72.15
2023-05-10T09:14:01.075Z,72.15
2023-05-10T09:15:01.670Z,72.49
2023-05-10T09:16:09.837Z,72.49
2023-05-10T09:17:01.139Z,72.49
2023-05-10T09:18:00.854Z,72.49
2023-05-10T09:19:00.758Z,72.49
2023-05-10T09:20:01.705Z,72.35
2023-05-10T09:21:00.698Z,72.35
2023-05-10T09:22:00.677Z,72.35
2023-05-10T09:23:00.688Z,72.35
2023-05-10T09:24:02.920Z,72.35
2023-05-10T09:25:09.746Z,71.55
2023-05-10T09:26:07.826Z,71.55
2023-05-10T09:27:01.418Z,71.55
2023-05-10T09:28:00.924Z,71.55
2023-05-10T09:29:00.775Z,71.55
2023-05-10T09:30:00.890Z,70.23
2023-05-10T09:31:00.751Z,70.23
2023-05-10T09:32:00.672Z,70.23
2023-05-10T09:33:01.257Z,70.23
2023-05-10T09:34:00.673Z,70.23
2023-05-10T09:35:05.990Z,69.49
2023-05-10T09:36:06.675Z,69.49
2023-05-10T09:37:01.739Z,69.49
2023-05-10T09:38:02.708Z,69.49
2023-05-10T09:39:00.685Z,69.49
2023-05-10T09:40:03.051Z,70.11
2023-05-10T09:41:00.682Z,70.11
2023-05-10T09:42:02.869Z,70.11
2023-05-10T09:43:01.942Z,70.11
2023-05-10T09:44:00.666Z,70.11
2023-05-10T09:45:04.489Z,69.07
2023-05-10T09:46:08.256Z,69.07
2023-05-10T09:47:01.180Z,69.07
2023-05-10T09:48:01.789Z,69.07
2023-05-10T09:49:00.662Z,69.07
2023-05-10T09:50:01.215Z,68.39
2023-05-10T09:51:00.742Z,68.39
2023-05-10T09:52:01.638Z,68.39
2023-05-10T09:53:01.894Z,68.39
2023-05-10T09:54:10.606Z,68.39
2023-05-10T09:55:00.670Z,68.62
2023-05-10T09:56:00.704Z,68.62
2023-05-10T09:57:00.932Z,68.62
2023-05-10T09:58:01.383Z,68.62
2023-05-10T09:59:02.284Z,68.62
2023-05-10T10:00:01.241Z,67.55
2023-05-10T10:01:00.702Z,67.55
2023-05-10T10:02:00.899Z,67.55
2023-05-10T10:03:01.021Z,67.55
2023-05-10T10:04:05.177Z,67.55
2023-05-10T10:05:01.205Z,68.24
2023-05-10T10:06:00.683Z,68.24
2023-05-10T10:07:01.902Z,68.24
2023-05-10T10:08:02.119Z,68.24
2023-05-10T10:09:00.876Z,68.24
2023-05-10T10:10:00.701Z,68.58
2023-05-10T10:11:00.788Z,68.58
2023-05-10T10:12:01.446Z,68.58
2023-05-10T10:13:01.136Z,68.58
2023-05-10T10:14:00.956Z,68.58
2023-05-10T10:15:00.931Z,68.46
2023-05-10T10:16:00.859Z,68.46
2023-05-10T10:17:08.275Z,68.46
2023-05-10T10:18:00.851Z,68.46
2023-05-10T10:19:00.797Z,68.46
2023-05-10T10:20:02.318Z,67.97
2023-05-10T10:21:01.256Z,67.97
2023-05-10T10:22:00.683Z,67.97
2023-05-10T10:23:00.667Z,67.97
2023-05-10T10:24:01.140Z,67.97
2023-05-10T10:25:00.750Z,67.37
2023-05-10T10:26:01.938Z,67.37
2023-05-10T10:27:06.888Z,67.37
2023-05-10T10:28:08.160Z,67.37
2023-05-10T10:29:10.228Z,67.37
2023-05-10T10:30:03.765Z,66.20
2023-05-10T10:31:03.963Z,66.20
2023-05-10T10:32:03.969Z,66.20
2023-05-10T10:33:20.609Z,66.20
2023-05-10T10:34:05.713Z,66.20
2023-05-10T10:35:00.969Z,66.76
2023-05-10T10:36:01.649Z,66.76
2023-05-10T10:37:05.735Z,66.76
2023-05-10T10:38:00.749Z,66.76
2023-05-10T10:39:01.234Z,66.76
2023-05-10T10:40:00.687Z,67.41
2023-05-10T10:41:02.739Z,67.41
2023-05-10T10:42:00.693Z,67.41
2023-05-10T10:43:10.610Z,67.41
2023-05-10T10:44:10.603Z,67.41
2023-05-10T10:45:10.587Z,67.18
2023-05-10T10:46:10.606Z,67.18
2023-05-10T10:47:08.293Z,67.18
2023-05-10T10:48:10.596Z,67.18
2023-05-10T10:49:08.766Z,67.18
2023-05-10T10:50:00.704Z,66.86
2023-05-10T10:51:00.690Z,66.86
2023-05-10T10:52:10.615Z,66.86
2023-05-10T10:53:10.252Z,66.86
2023-05-10T10:54:08.367Z,66.86
2023-05-10T10:55:04.099Z,66.02
2023-05-10T10:56:09.173Z,66.02
2023-05-10T10:57:10.598Z,66.02
2023-05-10T10:58:00.712Z,66.02
2023-05-10T10:59:00.772Z,66.02
2023-05-10T11:00:10.599Z,63.38
2023-05-10T11:01:10.674Z,63.38
2023-05-10T11:02:00.671Z,63.38
2023-05-10T11:03:05.275Z,63.38
2023-05-10T11:04:00.757Z,63.38
2023-05-10T11:05:10.613Z,64.49
2023-05-10T11:06:00.682Z,64.49
2023-05-10T11:07:10.606Z,64.49
2023-05-10T11:08:06.584Z,64.49
2023-05-10T11:09:08.959Z,64.49
2023-05-10T11:10:04.206Z,63.90
2023-05-10T11:11:00.708Z,63.90
2023-05-10T11:12:08.123Z,63.90
2023-05-10T11:13:01.482Z,63.90
2023-05-10T11:14:04.733Z,63.90
2023-05-10T11:15:01.270Z,63.84
2023-05-10T11:16:10.680Z,63.84
2023-05-10T11:17:01.431Z,63.84
2023-05-10T11:18:10.607Z,63.84
2023-05-10T11:19:06.823Z,63.84
2023-05-10T11:20:10.608Z,64.83
2023-05-10T11:21:01.458Z,64.83
2023-05-10T11:22:03.967Z,64.83
2023-05-10T11:23:10.603Z,64.83
2023-05-10T11:24:01.531Z,64.83
2023-05-10T11:25:00.899Z,65.14
2023-05-10T11:26:00.789Z,65.14
2023-05-10T11:27:00.689Z,65.14
2023-05-10T11:28:02.533Z,65.14
2023-05-10T11:29:01.251Z,65.14
2023-05-10T11:30:01.056Z,66.83
2023-05-10T11:31:00.797Z,66.83
2023-05-10T11:32:00.735Z,66.83
2023-05-10T11:33:00.775Z,66.83
2023-05-10T11:34:00.852Z,66.83
2023-05-10T11:35:06.268Z,66.56
2023-05-10T11:36:00.726Z,66.56
2023-05-10T11:37:00.836Z,66.56
2023-05-10T11:38:00.679Z,66.56
2023-05-10T11:39:00.714Z,66.56
2023-05-10T11:40:00.711Z,66.80
2023-05-10T11:41:00.703Z,66.80
2023-05-10T11:42:00.739Z,66.80
2023-05-10T11:43:01.269Z,66.80
2023-05-10T11:44:01.582Z,66.80
2023-05-10T11:45:00.941Z,65.05
2023-05-10T11:46:00.757Z,65.05
2023-05-10T11:47:01.296Z,65.05
2023-05-10T11:48:01.664Z,65.05
2023-05-10T11:49:01.354Z,65.05
2023-05-10T11:50:00.840Z,63.89
2023-05-10T11:51:01.261Z,63.89
2023-05-10T11:52:04.657Z,63.89
2023-05-10T11:53:00.696Z,63.89
2023-05-10T11:54:00.688Z,63.89
2023-05-10T11:55:00.679Z,64.18
2023-05-10T11:56:10.603Z,64.18
2023-05-10T11:57:00.722Z,64.18
2023-05-10T11:58:01.484Z,64.18
2023-05-10T11:59:00.795Z,64.18
2023-05-10T12:00:01.235Z,64.14
2023-05-10T12:01:00.846Z,64.14
2023-05-10T12:02:00.725Z,64.14
2023-05-10T12:03:01.130Z,64.14
2023-05-10T12:04:01.537Z,64.14
2023-05-10T12:05:00.919Z,65.25
2023-05-10T12:06:01.926Z,65.25
2023-05-10T12:07:00.801Z,65.25
2023-05-10T12:08:10.593Z,65.25
2023-05-10T12:09:05.290Z,65.25
2023-05-10T12:10:10.603Z,65.56
2023-05-10T12:11:05.200Z,65.56
2023-05-10T12:12:02.128Z,65.56
2023-05-10T12:13:00.677Z,65.56
2023-05-10T12:14:04.021Z,65.56
2023-05-10T12:15:01.639Z,65.79
2023-05-10T12:16:10.647Z,65.79
2023-05-10T12:17:00.705Z,65.79
2023-05-10T12:18:00.777Z,65.79
2023-05-10T12:19:00.734Z,65.79
2023-05-10T12:20:10.587Z,66.04
2023-05-10T12:21:03.355Z,66.04
2023-05-10T12:22:04.204Z,66.04
2023-05-10T12:23:01.618Z,66.04
2023-05-10T12:24:02.217Z,66.04
2023-05-10T12:25:00.662Z,66.23
2023-05-10T12:26:02.568Z,66.23
2023-05-10T12:27:04.349Z,66.23
2023-05-10T12:28:02.897Z,66.23
2023-05-10T12:29:10.601Z,66.23
2023-05-10T12:30:01.690Z,66.12
2023-05-10T12:31:01.658Z,66.12
2023-05-10T12:32:00.799Z,66.12
2023-05-10T12:33:02.088Z,66.12
2023-05-10T12:34:00.671Z,66.12
2023-05-10T12:35:00.671Z,66.60
2023-05-10T12:36:00.681Z,66.60
2023-05-10T12:37:01.457Z,66.60
2023-05-10T12:38:00.723Z,66.60
2023-05-10T12:39:02.328Z,66.60
2023-05-10T12:40:00.734Z,65.58
2023-05-10T12:41:01.913Z,65.58
2023-05-10T12:42:00.704Z,65.58
2023-05-10T12:43:00.730Z,65.58
2023-05-10T12:44:00.691Z,65.58
2023-05-10T12:45:00.728Z,65.59
2023-05-10T12:46:08.554Z,65.59
2023-05-10T12:47:00.697Z,65.59
2023-05-10T12:48:00.715Z,65.59
2023-05-10T12:49:09.014Z,65.59
2023-05-10T12:50:01.624Z,65.14
2023-05-10T12:51:01.419Z,65.14
2023-05-10T12:52:00.704Z,65.14
2023-05-10T12:53:00.678Z,65.14